Time;durP1;ratioP1;P1;durP2;ratioP2;P2;SDS_P1;SDS_P2;PMS_P1;PMS_P2;Temp;Humidity;BMP_temperature;BMP_pressure;BME280_temperature;BME280_humidity;BME280_pressure;Samples;Min_cycle;Max_cycle;Signal;HPM_P1;HPM_P2
2023/09/25 00:00:55;;;;;;;;;;;;;;;12.12;100.00;102125.00;5002342;28;19921;-68
2023/09/25 00:03:20;;;;;;;;;;;;;;;12.08;100.00;102127.03;4998871;28;20000;-68
2023/09/25 00:05:46;;;;;;;;;;;;;;;12.04;100.00;102130.03;5014836;28;19921;-68
2023/09/25 00:08:11;;;;;;;;;;;;;;;12.14;100.00;102117.69;5000995;28;20040;-68
2023/09/25 00:10:36;;;;;;;;;;;;;;;12.10;100.00;102127.81;5003848;28;19952;-68
2023/09/25 00:13:02;;;;;;;;;;;;;;;12.12;100.00;102127.69;5012876;28;20007;-68
2023/09/25 00:15:27;;;;;;;;;;;;;;;12.07;100.00;102130.69;4998144;28;20280;-69
2023/09/25 00:17:53;;;;;;;;;;;;;;;12.10;100.00;102119.72;5007176;28;20004;-68
2023/09/25 00:20:24;;;;;;;;;;;;;;;12.07;100.00;102124.44;5010004;28;19925;-69
2023/09/25 00:22:49;;;;;;;;;;;;;;;12.07;100.00;102132.50;5001170;28;19925;-69
2023/09/25 00:25:14;;;;;;;;;;;;;;;12.09;100.00;102131.47;5014176;28;19993;-67
2023/09/25 00:27:39;;;;;;;;;;;;;;;12.02;100.00;102130.13;5013518;28;20284;-69
2023/09/25 00:30:09;;;;;;;;;;;;;;;11.99;100.00;102122.22;5003207;28;20299;-69
2023/09/25 00:32:34;;;;;;;;;;;;;;;11.94;100.00;102132.38;5007717;28;19957;-69
2023/09/25 00:34:59;;;;;;;;;;;;;;;11.93;100.00;102133.34;5000569;28;20032;-68
2023/09/25 00:37:25;;;;;;;;;;;;;;;11.89;100.00;102135.38;5010285;28;19925;-70
2023/09/25 00:39:52;;;;;;;;;;;;;;;11.88;100.00;102132.78;5009192;28;19924;-68
2023/09/25 00:42:17;;;;;;;;;;;;;;;11.91;100.00;102136.16;4993497;28;19972;-68
2023/09/25 00:44:42;;;;;;;;;;;;;;;11.82;100.00;102124.13;4998930;28;20008;-68
2023/09/25 00:47:08;;;;;;;;;;;;;;;11.82;100.00;102125.94;4997401;28;20307;-69
2023/09/25 00:49:34;;;;;;;;;;;;;;;11.71;100.00;102126.63;4999885;28;19929;-69
2023/09/25 00:51:59;;;;;;;;;;;;;;;11.79;100.00;102120.75;4996411;28;19921;-68
2023/09/25 00:54:24;;;;;;;;;;;;;;;11.76;100.00;102121.81;5013974;28;19921;-69
2023/09/25 00:56:49;;;;;;;;;;;;;;;11.68;100.00;102111.53;5001396;28;19922;-68
2023/09/25 00:59:15;;;;;;;;;;;;;;;11.75;100.00;102116.56;4993044;28;19932;-69
2023/09/25 01:01:41;;;;;;;;;;;;;;;11.77;100.00;102120.00;5006793;28;19960;-68
2023/09/25 01:04:06;;;;;;;;;;;;;;;11.67;100.00;102117.88;4996549;28;19943;-69
2023/09/25 01:06:31;;;;;;;;;;;;;;;11.69;100.00;102124.03;4996872;28;20367;-68
2023/09/25 01:08:56;;;;;;;;;;;;;;;11.66;100.00;102121.53;4999155;28;20378;-69
2023/09/25 01:11:22;;;;;;;;;;;;;;;11.71;100.00;102129.31;5001751;28;20190;-68
2023/09/25 01:13:47;;;;;;;;;;;;;;;11.65;100.00;102127.88;4991732;28;20274;-69
2023/09/25 01:16:13;;;;;;;;;;;;;;;11.65;100.00;102133.25;4999851;28;19932;-69
2023/09/25 01:18:38;;;;;;;;;;;;;;;11.55;100.00;102129.38;5006869;28;19929;-68
2023/09/25 01:21:03;;;;;;;;;;;;;;;11.60;100.00;102129.97;5005611;28;20001;-70
2023/09/25 01:23:29;;;;;;;;;;;;;;;11.61;100.00;102136.25;4994727;28;19949;-69
2023/09/25 01:25:54;;;;;;;;;;;;;;;11.60;100.00;102129.13;4999101;28;20016;-68
2023/09/25 01:28:19;;;;;;;;;;;;;;;11.60;100.00;102132.66;5002134;28;19976;-69
2023/09/25 01:30:44;;;;;;;;;;;;;;;11.60;100.00;102129.13;5001442;28;20419;-68
2023/09/25 01:33:10;;;;;;;;;;;;;;;11.63;100.00;102131.63;4994827;28;20387;-69
2023/09/25 01:35:35;;;;;;;;;;;;;;;11.48;100.00;102130.75;5009587;28;20012;-68
2023/09/25 01:38:03;;;;;;;;;;;;;;;11.42;100.00;102125.75;4989503;28;20436;-67
2023/09/25 01:40:28;;;;;;;;;;;;;;;11.50;100.00;102123.47;5001331;28;19924;-68
2023/09/25 01:42:53;;;;;;;;;;;;;;;11.37;100.00;102121.50;4982291;28;19921;-68
2023/09/25 01:45:19;;;;;;;;;;;;;;;11.31;100.00;102113.81;5010888;28;20398;-69
2023/09/25 01:47:51;;;;;;;;;;;;;;;11.35;100.00;102126.09;4966669;28;19979;-68
2023/09/25 01:50:20;;;;;;;;;;;;;;;11.35;100.00;102117.19;4999438;28;19925;-69
2023/09/25 01:52:46;;;;;;;;;;;;;;;11.27;100.00;102120.31;4982485;28;19928;-68
2023/09/25 01:55:11;;;;;;;;;;;;;;;11.28;100.00;102118.50;5010104;28;20335;-69
2023/09/25 01:57:36;;;;;;;;;;;;;;;11.34;100.00;102126.22;5005426;28;20028;-68
2023/09/25 02:00:07;;;;;;;;;;;;;;;11.39;100.00;102116.91;5002002;28;19925;-68
2023/09/25 02:02:33;;;;;;;;;;;;;;;11.31;100.00;102126.41;5005058;28;20368;-68
2023/09/25 02:04:59;;;;;;;;;;;;;;;11.20;100.00;102124.34;5000785;28;19931;-69
2023/09/25 02:07:24;;;;;;;;;;;;;;;11.18;100.00;102120.88;4982533;28;20407;-68
2023/09/25 02:09:50;;;;;;;;;;;;;;;11.11;100.00;102117.72;5003198;28;19963;-70
2023/09/25 02:12:16;;;;;;;;;;;;;;;11.08;100.00;102113.38;4992964;28;19961;-69
2023/09/25 02:14:41;;;;;;;;;;;;;;;11.05;100.00;102118.91;5000148;28;20769;-69
2023/09/25 02:17:06;;;;;;;;;;;;;;;11.02;100.00;102115.56;5005389;28;20023;-69
2023/09/25 02:19:31;;;;;;;;;;;;;;;11.00;100.00;102109.41;5004284;28;19933;-69
2023/09/25 02:21:56;;;;;;;;;;;;;;;11.05;100.00;102113.53;4999823;28;20193;-68
2023/09/25 02:24:22;;;;;;;;;;;;;;;11.03;100.00;102110.09;4998583;28;19941;-69
2023/09/25 02:26:47;;;;;;;;;;;;;;;10.93;100.00;102107.09;5008427;28;21810;-70
2023/09/25 02:29:13;;;;;;;;;;;;;;;10.90;100.00;102112.63;5001454;28;19937;-69
2023/09/25 02:31:38;;;;;;;;;;;;;;;10.84;100.00;102112.13;5006962;28;20376;-69
2023/09/25 02:34:04;;;;;;;;;;;;;;;10.91;100.00;102105.44;5012054;28;20004;-69
2023/09/25 02:36:29;;;;;;;;;;;;;;;10.88;100.00;102106.47;5006439;28;19928;-69
2023/09/25 02:38:54;;;;;;;;;;;;;;;10.85;100.00;102105.81;5003461;28;19995;-69
2023/09/25 02:41:20;;;;;;;;;;;;;;;10.88;100.00;102106.47;4997542;28;20016;-69
2023/09/25 02:43:45;;;;;;;;;;;;;;;10.88;100.00;102111.00;5002957;28;20101;-69
2023/09/25 02:46:10;;;;;;;;;;;;;;;10.87;100.00;102104.75;5007269;28;19999;-71
2023/09/25 02:48:35;;;;;;;;;;;;;;;10.83;100.00;102107.72;5007197;28;19922;-69
2023/09/25 02:51:01;;;;;;;;;;;;;;;10.86;100.00;102111.06;5008353;28;19953;-69
2023/09/25 02:53:26;;;;;;;;;;;;;;;10.81;100.00;102107.81;5004973;28;20012;-69
2023/09/25 02:55:51;;;;;;;;;;;;;;;10.80;100.00;102106.09;5008161;28;19928;-69
2023/09/25 02:58:16;;;;;;;;;;;;;;;10.89;100.00;102112.75;4985685;28;19925;-68
2023/09/25 03:00:41;;;;;;;;;;;;;;;10.84;100.00;102114.81;5008550;28;19921;-69
2023/09/25 03:03:07;;;;;;;;;;;;;;;10.90;100.00;102112.63;5005315;28;19988;-68
2023/09/25 03:05:32;;;;;;;;;;;;;;;10.88;100.00;102113.69;5003826;28;19921;-69
2023/09/25 03:07:57;;;;;;;;;;;;;;;10.83;100.00;102118.47;5015378;28;19928;-68
2023/09/25 03:10:22;;;;;;;;;;;;;;;10.81;100.00;102110.50;5011569;28;19917;-69
2023/09/25 03:12:47;;;;;;;;;;;;;;;10.79;100.00;102113.25;5013843;28;19979;-68
2023/09/25 03:15:13;;;;;;;;;;;;;;;10.76;100.00;102116.13;5012306;28;19988;-69
2023/09/25 03:17:38;;;;;;;;;;;;;;;10.78;100.00;102110.69;5010566;28;19953;-69
2023/09/25 03:20:12;;;;;;;;;;;;;;;10.74;100.00;102117.19;5002580;28;20207;-68
2023/09/25 03:22:37;;;;;;;;;;;;;;;10.71;100.00;102115.56;5004151;28;19928;-68
2023/09/25 03:25:03;;;;;;;;;;;;;;;10.66;100.00;102117.63;5000492;28;19921;-69
2023/09/25 03:27:28;;;;;;;;;;;;;;;10.74;100.00;102109.97;5013373;28;19932;-69
2023/09/25 03:29:53;;;;;;;;;;;;;;;10.72;100.00;102106.53;5002501;28;19967;-69
2023/09/25 03:32:18;;;;;;;;;;;;;;;10.69;100.00;102103.16;4993554;28;19925;-68
2023/09/25 03:34:44;;;;;;;;;;;;;;;10.75;100.00;102105.47;5004215;28;19925;-68
2023/09/25 03:37:09;;;;;;;;;;;;;;;10.65;100.00;102102.47;5004975;28;19925;-68
2023/09/25 03:39:34;;;;;;;;;;;;;;;10.75;100.00;102111.72;4998945;28;20368;-69
2023/09/25 03:42:00;;;;;;;;;;;;;;;10.67;100.00;102107.75;4997859;28;19921;-68
2023/09/25 03:44:25;;;;;;;;;;;;;;;10.65;100.00;102106.00;5005540;28;19998;-69
2023/09/25 03:46:50;;;;;;;;;;;;;;;10.62;100.00;102110.72;5007439;28;20035;-69
2023/09/25 03:49:15;;;;;;;;;;;;;;;10.60;100.00;102105.41;5005214;28;19964;-69
2023/09/25 03:51:41;;;;;;;;;;;;;;;10.61;100.00;102115.19;5009109;28;19921;-69
2023/09/25 03:54:06;;;;;;;;;;;;;;;10.60;100.00;102112.63;5000478;28;19995;-69
2023/09/25 03:56:31;;;;;;;;;;;;;;;10.54;100.00;102113.84;5009904;28;20308;-69
2023/09/25 03:58:56;;;;;;;;;;;;;;;10.59;100.00;102114.44;5002940;28;19925;-71
2023/09/25 04:01:22;;;;;;;;;;;;;;;10.60;100.00;102117.97;5009676;28;19936;-70
2023/09/25 04:03:47;;;;;;;;;;;;;;;10.56;100.00;102117.31;5002086;28;19940;-70
2023/09/25 04:06:12;;;;;;;;;;;;;;;10.39;100.00;102095.91;5012403;28;19921;-69
2023/09/25 04:08:37;;;;;;;;;;;;;;;10.49;100.00;102116.75;4986145;28;20004;-70
2023/09/25 04:11:03;;;;;;;;;;;;;;;10.49;100.00;102113.22;5007371;28;20299;-69
2023/09/25 04:13:28;;;;;;;;;;;;;;;10.44;100.00;102115.31;5007895;28;20023;-69
2023/09/25 04:15:54;;;;;;;;;;;;;;;10.41;100.00;102121.72;5004881;28;19921;-69
2023/09/25 04:18:19;;;;;;;;;;;;;;;10.37;100.00;102120.13;5004358;28;19932;-68
2023/09/25 04:20:45;;;;;;;;;;;;;;;10.43;100.00;102119.81;5004788;28;19927;-69
2023/09/25 04:23:11;;;;;;;;;;;;;;;10.36;100.00;102121.94;4998296;28;19928;-69
2023/09/25 04:25:37;;;;;;;;;;;;;;;10.40;100.00;102114.63;4987003;28;19920;-69
2023/09/25 04:28:02;;;;;;;;;;;;;;;10.43;100.00;102121.63;4997985;28;20020;-69
2023/09/25 04:30:28;;;;;;;;;;;;;;;10.41;100.00;102115.47;5001709;28;20292;-69
2023/09/25 04:32:54;;;;;;;;;;;;;;;10.42;100.00;102114.53;4997894;28;19920;-68
2023/09/25 04:35:20;;;;;;;;;;;;;;;10.34;100.00;102123.84;4987117;28;20299;-69
2023/09/25 04:37:45;;;;;;;;;;;;;;;10.41;100.00;102119.03;5004985;28;19921;-69
2023/09/25 04:40:21;;;;;;;;;;;;;;;10.45;100.00;102123.28;4986528;28;19921;-69
2023/09/25 04:42:46;;;;;;;;;;;;;;;10.43;100.00;102127.88;4994913;28;20023;-69
2023/09/25 04:45:13;;;;;;;;;;;;;;;10.35;100.00;102135.47;5002858;28;19975;-69
2023/09/25 04:47:42;;;;;;;;;;;;;;;10.41;100.00;102128.91;4989764;28;20059;-69
2023/09/25 04:50:08;;;;;;;;;;;;;;;10.34;100.00;102129.22;5005230;28;19921;-69
2023/09/25 04:52:34;;;;;;;;;;;;;;;10.30;100.00;102130.34;4985564;28;19921;-69
2023/09/25 04:54:59;;;;;;;;;;;;;;;10.38;100.00;102137.97;5014914;28;19928;-69
2023/09/25 04:57:25;;;;;;;;;;;;;;;10.35;100.00;102136.31;5006471;28;20012;-69
2023/09/25 04:59:50;;;;;;;;;;;;;;;10.41;100.00;102131.59;5007264;28;20013;-69
2023/09/25 05:02:15;;;;;;;;;;;;;;;10.39;100.00;102131.69;5008174;28;19918;-69
2023/09/25 05:04:40;;;;;;;;;;;;;;;10.47;100.00;102125.88;5000282;28;19927;-68
2023/09/25 05:07:06;;;;;;;;;;;;;;;10.52;100.00;102123.81;4992654;28;20483;-69
2023/09/25 05:09:31;;;;;;;;;;;;;;;10.50;100.00;102121.19;5005884;28;20499;-69
2023/09/25 05:11:56;;;;;;;;;;;;;;;10.50;100.00;102128.38;4982826;28;19913;-69
2023/09/25 05:14:22;;;;;;;;;;;;;;;10.50;100.00;102125.69;5016272;28;19924;-69
2023/09/25 05:16:47;;;;;;;;;;;;;;;10.45;100.00;102128.66;5009528;28;19921;-69
2023/09/25 05:19:13;;;;;;;;;;;;;;;10.45;100.00;102127.78;5002461;28;19953;-69
2023/09/25 05:21:38;;;;;;;;;;;;;;;10.40;100.00;102114.63;5011549;28;20056;-68
2023/09/25 05:24:03;;;;;;;;;;;;;;;10.50;100.00;102131.94;5019989;28;20317;-69
2023/09/25 05:26:28;;;;;;;;;;;;;;;10.56;100.00;102133.41;5003120;28;20261;-68
2023/09/25 05:28:53;;;;;;;;;;;;;;;10.52;100.00;102131.84;5014709;28;19931;-69
2023/09/25 05:31:19;;;;;;;;;;;;;;;10.45;100.00;102136.72;4994854;28;19926;-69
2023/09/25 05:33:44;;;;;;;;;;;;;;;10.43;100.00;102141.31;5013191;28;19956;-69
2023/09/25 05:36:09;;;;;;;;;;;;;;;10.41;100.00;102145.00;5006891;28;20004;-69
2023/09/25 05:38:35;;;;;;;;;;;;;;;10.39;100.00;102138.84;5007928;28;19927;-69
2023/09/25 05:41:01;;;;;;;;;;;;;;;10.40;100.00;102145.97;5000791;28;19968;-70
2023/09/25 05:43:26;;;;;;;;;;;;;;;10.36;100.00;102145.25;5004625;28;20425;-69
2023/09/25 05:45:51;;;;;;;;;;;;;;;10.38;100.00;102146.03;5007517;28;19921;-69
2023/09/25 05:48:17;;;;;;;;;;;;;;;10.40;100.00;102146.84;5014188;28;20287;-70
2023/09/25 05:50:42;;;;;;;;;;;;;;;10.40;100.00;102138.78;5013099;28;20059;-69
2023/09/25 05:53:08;;;;;;;;;;;;;;;10.41;100.00;102148.56;5010609;28;19999;-69
2023/09/25 05:55:33;;;;;;;;;;;;;;;10.42;100.00;102144.94;5015593;28;19918;-69
2023/09/25 05:57:58;;;;;;;;;;;;;;;10.42;100.00;102146.75;5001158;28;19921;-69
2023/09/25 06:00:24;;;;;;;;;;;;;;;10.48;100.00;102144.56;5007333;28;19975;-69
2023/09/25 06:02:49;;;;;;;;;;;;;;;10.62;100.00;102154.53;5005028;28;20052;-69
2023/09/25 06:05:15;;;;;;;;;;;;;;;10.63;100.00;102161.63;5007073;28;19921;-69
2023/09/25 06:07:40;;;;;;;;;;;;;;;10.61;100.00;102158.16;5013687;28;20291;-69
2023/09/25 06:10:07;;;;;;;;;;;;;;;10.63;100.00;102160.78;5011905;28;19921;-69
2023/09/25 06:12:33;;;;;;;;;;;;;;;10.72;100.00;102162.94;4992792;28;19921;-69
2023/09/25 06:14:58;;;;;;;;;;;;;;;10.76;100.00;102160.94;5000721;28;20392;-69
2023/09/25 06:17:26;;;;;;;;;;;;;;;10.83;100.00;102165.03;4983866;28;19927;-68
2023/09/25 06:19:53;;;;;;;;;;;;;;;10.87;100.00;102163.00;5000779;28;19973;-69
2023/09/25 06:22:18;;;;;;;;;;;;;;;10.96;100.00;102170.53;5008281;28;20222;-69
2023/09/25 06:24:43;;;;;;;;;;;;;;;11.01;100.00;102163.06;5002370;28;19971;-69
2023/09/25 06:27:10;;;;;;;;;;;;;;;11.06;100.00;102168.19;5012040;28;19967;-69
2023/09/25 06:29:36;;;;;;;;;;;;;;;11.12;100.00;102172.31;5010618;28;19928;-69
2023/09/25 06:32:01;;;;;;;;;;;;;;;11.23;100.00;102168.03;4999080;28;19921;-69
2023/09/25 06:34:26;;;;;;;;;;;;;;;11.29;100.00;102169.50;5006218;28;19921;-69
2023/09/25 06:36:51;;;;;;;;;;;;;;;11.35;100.00;102170.97;5008729;28;19970;-69
2023/09/25 06:39:16;;;;;;;;;;;;;;;11.35;100.00;102179.03;4989989;28;20020;-70
2023/09/25 06:41:43;;;;;;;;;;;;;;;11.45;100.00;102171.28;4998857;28;19963;-68
2023/09/25 06:44:08;;;;;;;;;;;;;;;11.58;100.00;102171.41;4990814;28;20371;-69
2023/09/25 06:46:33;;;;;;;;;;;;;;;11.74;100.00;102166.78;5010423;28;19917;-69
2023/09/25 06:49:02;;;;;;;;;;;;;;;11.82;100.00;102160.94;5003331;28;20394;-68
2023/09/25 06:51:28;;;;;;;;;;;;;;;11.95;100.00;102169.97;4985529;28;19928;-69
2023/09/25 06:53:53;;;;;;;;;;;;;;;12.09;100.00;102157.50;5002671;28;19995;-68
2023/09/25 06:56:18;;;;;;;;;;;;;;;12.27;100.00;102161.72;4996451;28;20051;-70
2023/09/25 06:58:43;;;;;;;;;;;;;;;12.42;100.00;102159.00;5004275;28;19925;-68
2023/09/25 07:01:09;;;;;;;;;;;;;;;12.42;100.00;102161.69;5006308;28;19956;-69
2023/09/25 07:03:34;;;;;;;;;;;;;;;12.55;100.00;102159.06;5002571;28;20325;-70
2023/09/25 07:05:59;;;;;;;;;;;;;;;12.74;100.00;102161.44;5008987;28;19927;-69
2023/09/25 07:08:26;;;;;;;;;;;;;;;12.77;100.00;102165.75;5011503;28;19929;-70
2023/09/25 07:10:51;;;;;;;;;;;;;;;12.83;100.00;102159.94;5010002;28;19917;-70
2023/09/25 07:13:16;;;;;;;;;;;;;;;12.99;100.00;102159.78;5007524;28;20376;-69
2023/09/25 07:15:43;;;;;;;;;;;;;;;13.07;100.00;102168.25;5008496;28;19947;-70
2023/09/25 07:18:08;;;;;;;;;;;;;;;13.20;100.00;102160.19;4985178;28;20016;-71
2023/09/25 07:20:33;;;;;;;;;;;;;;;13.35;100.00;102177.16;4984365;28;19920;-68
2023/09/25 07:22:59;;;;;;;;;;;;;;;13.38;100.00;102168.81;5009401;28;20426;-70
2023/09/25 07:25:24;;;;;;;;;;;;;;;13.47;100.00;102162.84;5008334;28;19921;-70
2023/09/25 07:27:49;;;;;;;;;;;;;;;13.62;100.00;102173.56;5014714;28;19987;-70
2023/09/25 07:30:15;;;;;;;;;;;;;;;13.75;100.00;102165.47;5008697;28;19925;-72
2023/09/25 07:32:42;;;;;;;;;;;;;;;13.87;100.00;102164.56;5006142;28;20210;-71
2023/09/25 07:35:15;;;;;;;;;;;;;;;14.03;100.00;102156.25;5008383;28;19921;-70
2023/09/25 07:37:41;;;;;;;;;;;;;;;14.07;100.00;102157.75;5003450;28;19917;-69
2023/09/25 07:40:09;;;;;;;;;;;;;;;14.18;100.00;102159.69;4970106;28;20251;-69
2023/09/25 07:42:35;;;;;;;;;;;;;;;14.27;100.00;102149.19;4996850;28;20268;-71
2023/09/25 07:45:00;;;;;;;;;;;;;;;14.35;100.00;102149.47;5009260;28;19924;-70
2023/09/25 07:47:29;;;;;;;;;;;;;;;14.44;100.00;102151.50;5011456;28;19925;-70
2023/09/25 07:49:54;;;;;;;;;;;;;;;14.71;100.00;102153.19;5007167;28;19921;-69
2023/09/25 07:52:20;;;;;;;;;;;;;;;14.87;100.00;102144.78;4986983;28;19921;-68
2023/09/25 07:54:45;;;;;;;;;;;;;;;14.87;100.00;102154.72;5013958;28;20311;-70
2023/09/25 07:57:14;;;;;;;;;;;;;;;14.88;100.00;102145.63;5008182;28;20300;-70
2023/09/25 07:59:40;;;;;;;;;;;;;;;14.93;100.00;102151.56;4989943;28;19931;-70
2023/09/25 08:02:07;;;;;;;;;;;;;;;14.85;100.00;102157.56;5008317;28;19929;-70
2023/09/25 08:04:34;;;;;;;;;;;;;;;14.97;100.00;102164.72;5005168;28;19964;-71
2023/09/25 08:06:59;;;;;;;;;;;;;;;14.99;100.00;102162.78;5006980;28;19921;-72
2023/09/25 08:09:24;;;;;;;;;;;;;;;15.04;100.00;102166.97;5005065;28;19928;-72
2023/09/25 08:11:49;;;;;;;;;;;;;;;15.18;100.00;102158.69;5004188;28;19921;-71
2023/09/25 08:14:15;;;;;;;;;;;;;;;15.18;100.00;102174.91;4987106;28;19979;-70
2023/09/25 08:16:40;;;;;;;;;;;;;;;15.16;100.00;102168.75;5006501;28;19917;-71
2023/09/25 08:19:05;;;;;;;;;;;;;;;15.36;100.00;102156.38;5004419;28;19949;-70
2023/09/25 08:21:30;;;;;;;;;;;;;;;15.33;100.00;102162.06;5007713;28;20008;-70
2023/09/25 08:23:56;;;;;;;;;;;;;;;15.41;100.00;102164.16;5004728;28;19927;-71
2023/09/25 08:26:21;;;;;;;;;;;;;;;15.35;100.00;102156.50;4999675;28;19923;-71
2023/09/25 08:28:46;;;;;;;;;;;;;;;15.43;100.00;102160.34;5012031;28;19974;-69
2023/09/25 08:31:11;;;;;;;;;;;;;;;15.54;100.00;102151.38;4996771;28;20031;-73
2023/09/25 08:33:37;;;;;;;;;;;;;;;15.62;100.00;102155.34;5011391;28;19917;-70
2023/09/25 08:36:02;;;;;;;;;;;;;;;15.67;100.00;102155.84;5004914;28;19953;-70
2023/09/25 08:38:27;;;;;;;;;;;;;;;15.85;100.00;102150.81;5007570;28;19924;-71
2023/09/25 08:40:52;;;;;;;;;;;;;;;15.90;100.00;102151.31;5000988;28;19917;-70
2023/09/25 08:43:21;;;;;;;;;;;;;;;15.86;100.00;102145.31;4986572;28;19925;-71
2023/09/25 08:45:47;;;;;;;;;;;;;;;15.89;100.00;102138.78;4997963;28;19963;-70
2023/09/25 08:48:13;;;;;;;;;;;;;;;16.07;100.00;102132.88;4992615;28;19925;-71
2023/09/25 08:50:39;;;;;;;;;;;;;;;15.98;100.00;102148.88;5001055;28;19937;-69
2023/09/25 08:53:04;;;;;;;;;;;;;;;16.09;100.00;102145.28;4990805;28;19921;-71
2023/09/25 08:55:30;;;;;;;;;;;;;;;16.29;100.00;102148.22;5008038;28;19921;-69
2023/09/25 08:57:55;;;;;;;;;;;;;;;16.48;100.00;102143.03;5004555;28;19921;-70
2023/09/25 09:00:20;;;;;;;;;;;;;;;16.54;100.00;102144.38;4994813;28;19948;-70
2023/09/25 09:02:46;;;;;;;;;;;;;;;16.59;100.00;102143.97;5002462;28;19960;-71
2023/09/25 09:05:12;;;;;;;;;;;;;;;16.55;100.00;102151.50;5002978;28;19943;-72
2023/09/25 09:07:58;;;;;;;;;;;;;;;16.59;100.00;102144.84;5007188;28;20352;-71
2023/09/25 09:10:23;;;;;;;;;;;;;;;16.49;100.00;102128.50;5005288;28;19921;-69
2023/09/25 09:12:53;;;;;;;;;;;;;;;16.64;100.00;102137.22;4983593;28;20380;-70
2023/09/25 09:15:26;;;;;;;;;;;;;;;16.76;100.00;102132.59;4994475;28;19933;-70
2023/09/25 09:17:51;;;;;;;;;;;;;;;16.77;95.64;102128.91;5006882;28;20014;-69
2023/09/25 09:20:16;;;;;;;;;;;;;;;16.93;100.00;102128.47;5000596;28;19969;-68
2023/09/25 09:22:49;;;;;;;;;;;;;;;17.09;100.00;102132.63;5009041;28;19921;-70
2023/09/25 09:25:14;;;;;;;;;;;;;;;17.19;99.37;102140.81;4981761;28;19985;-71
2023/09/25 09:27:39;;;;;;;;;;;;;;;17.19;100.00;102132.69;5000978;28;19937;-71
2023/09/25 09:30:06;;;;;;;;;;;;;;;17.30;100.00;102131.75;5009025;28;19928;-71
2023/09/25 09:32:31;;;;;;;;;;;;;;;17.30;98.88;102140.78;4999272;28;19913;-71
2023/09/25 09:34:56;;;;;;;;;;;;;;;17.46;100.00;102139.44;5006777;28;19921;-70
2023/09/25 09:37:22;;;;;;;;;;;;;;;17.45;95.43;102129.56;5009417;28;19972;-70
2023/09/25 09:39:52;;;;;;;;;;;;;;;17.57;98.40;102128.50;4984911;28;20031;-70
2023/09/25 09:42:17;;;;;;;;;;;;;;;17.52;94.82;102133.47;4992827;28;19926;-69
2023/09/25 09:44:43;;;;;;;;;;;;;;;17.73;100.00;102125.31;5007879;28;19913;-69
2023/09/25 09:47:08;;;;;;;;;;;;;;;17.52;94.54;102137.03;5009413;28;19924;-69
2023/09/25 09:49:40;;;;;;;;;;;;;;;17.73;97.22;102141.59;5016893;28;19921;-69
2023/09/25 09:52:06;;;;;;;;;;;;;;;17.70;97.92;102144.59;5002212;28;20329;-70
2023/09/25 09:54:34;;;;;;;;;;;;;;;17.98;93.62;102151.19;5013402;28;19921;-70
2023/09/25 09:57:00;;;;;;;;;;;;;;;17.90;89.28;102161.81;5016194;28;19926;-70
2023/09/25 09:59:25;;;;;;;;;;;;;;;17.95;97.73;102145.13;5006936;28;20293;-70
2023/09/25 10:01:50;;;;;;;;;;;;;;;17.97;98.34;102148.59;5003807;28;20088;-71
2023/09/25 10:04:16;;;;;;;;;;;;;;;18.04;99.67;102157.06;4982956;28;20465;-68
2023/09/25 10:07:08;;;;;;;;;;;;;;;17.99;92.71;102163.78;5004494;28;20326;-72
2023/09/25 10:09:33;;;;;;;;;;;;;;;17.84;99.94;102156.97;4999757;28;20372;-70
2023/09/25 10:11:59;;;;;;;;;;;;;;;18.17;100.00;102151.41;4999661;28;19927;-69
2023/09/25 10:14:25;;;;;;;;;;;;;;;17.98;94.19;102158.44;4998979;28;19952;-68
2023/09/25 10:17:00;;;;;;;;;;;;;;;18.09;92.22;102141.22;5008669;28;19983;-70
2023/09/25 10:19:37;;;;;;;;;;;;;;;17.95;88.94;102148.69;5001595;28;20164;-69
2023/09/25 10:22:21;;;;;;;;;;;;;;;17.95;92.72;102148.69;5003137;28;19957;-70
2023/09/25 10:24:48;;;;;;;;;;;;;;;18.39;100.00;102132.16;4998691;28;19921;-70
2023/09/25 10:27:14;;;;;;;;;;;;;;;18.55;94.98;102133.44;4996737;28;19929;-71
2023/09/25 10:29:39;;;;;;;;;;;;;;;18.82;92.18;102127.34;5000625;28;19964;-70
2023/09/25 10:32:11;;;;;;;;;;;;;;;18.72;91.05;102127.34;4998569;28;20402;-69
2023/09/25 10:34:38;;;;;;;;;;;;;;;18.62;94.18;102129.16;4998762;28;19961;-70
2023/09/25 10:37:04;;;;;;;;;;;;;;;18.72;91.50;102132.78;5005905;28;19930;-72
2023/09/25 10:39:29;;;;;;;;;;;;;;;18.84;98.67;102132.63;5005856;28;19964;-70
2023/09/25 10:42:02;;;;;;;;;;;;;;;18.91;91.74;102132.94;4996398;28;19921;-71
2023/09/25 10:44:28;;;;;;;;;;;;;;;18.87;88.07;102138.66;4995692;28;19928;-71
2023/09/25 10:46:54;;;;;;;;;;;;;;;19.06;94.68;102136.94;5007424;28;20482;-71
2023/09/25 10:49:19;;;;;;;;;;;;;;;19.15;88.75;102135.22;5016325;28;20372;-70
2023/09/25 10:51:44;;;;;;;;;;;;;;;19.60;93.08;102131.84;5012451;28;19913;-70
2023/09/25 10:54:09;;;;;;;;;;;;;;;19.78;79.99;102136.53;5009123;28;19949;-71
2023/09/25 10:56:35;;;;;;;;;;;;;;;19.88;85.55;102131.91;5005030;28;19944;-71
2023/09/25 10:59:00;;;;;;;;;;;;;;;19.67;82.41;102134.84;4996963;28;19968;-70
2023/09/25 11:01:31;;;;;;;;;;;;;;;19.84;87.99;102121.44;5003507;28;19973;-71
2023/09/25 11:03:59;;;;;;;;;;;;;;;20.12;89.56;102122.38;4998085;28;19925;-71
2023/09/25 11:06:25;;;;;;;;;;;;;;;20.18;83.02;102127.19;5006803;28;19921;-72
2023/09/25 11:08:57;;;;;;;;;;;;;;;20.29;76.38;102092.56;4991453;28;19925;-70
2023/09/25 11:11:23;;;;;;;;;;;;;;;20.28;77.32;102116.22;5005925;28;19968;-69
2023/09/25 11:13:48;;;;;;;;;;;;;;;20.33;76.31;102121.22;4993681;28;20015;-70
2023/09/25 11:16:13;;;;;;;;;;;;;;;20.76;77.78;102132.44;5003489;28;20280;-70
2023/09/25 11:18:38;;;;;;;;;;;;;;;20.92;73.89;102140.78;5005529;28;20238;-71
2023/09/25 11:21:05;;;;;;;;;;;;;;;20.62;80.51;102140.13;4990109;28;19979;-70
2023/09/25 11:23:31;;;;;;;;;;;;;;;20.75;73.10;102138.91;4998501;28;19941;-71
2023/09/25 11:25:56;;;;;;;;;;;;;;;21.45;64.72;102140.88;5014096;28;19921;-69
2023/09/25 11:28:24;;;;;;;;;;;;;;;21.38;73.19;102147.97;5009429;28;19925;-71
2023/09/25 11:30:49;;;;;;;;;;;;;;;21.58;83.69;102149.47;4997782;28;19925;-71
2023/09/25 11:33:15;;;;;;;;;;;;;;;21.71;71.45;102151.84;4990341;28;19921;-71
2023/09/25 11:35:40;;;;;;;;;;;;;;;22.67;68.03;102142.66;5006909;28;20382;-70
2023/09/25 11:38:09;;;;;;;;;;;;;;;23.86;62.20;102134.88;4988578;28;19921;-70
2023/09/25 11:40:34;;;;;;;;;;;;;;;22.69;61.79;102138.72;5004725;28;19935;-73
2023/09/25 11:43:00;;;;;;;;;;;;;;;22.44;62.01;102144.13;4980507;28;19917;-70
2023/09/25 11:45:25;;;;;;;;;;;;;;;23.22;63.46;102141.16;5010368;28;20015;-70
2023/09/25 11:47:51;;;;;;;;;;;;;;;23.33;57.66;102140.81;5013865;28;20062;-70
2023/09/25 11:50:16;;;;;;;;;;;;;;;23.49;58.04;102141.81;5006825;28;19921;-71
2023/09/25 11:52:42;;;;;;;;;;;;;;;22.62;64.86;102145.91;4988656;28;19960;-72
2023/09/25 11:55:16;;;;;;;;;;;;;;;21.74;68.41;102131.53;5007699;28;19921;-71
2023/09/25 11:57:42;;;;;;;;;;;;;;;21.83;70.82;102146.97;5000423;28;20033;-72
2023/09/25 12:00:09;;;;;;;;;;;;;;;22.01;66.48;102138.66;4997938;28;20290;-69
2023/09/25 12:02:34;;;;;;;;;;;;;;;21.95;68.89;102139.31;5000303;28;19927;-71
2023/09/25 12:04:59;;;;;;;;;;;;;;;22.25;68.86;102138.91;5008409;28;19922;-70
2023/09/25 12:07:26;;;;;;;;;;;;;;;22.13;70.47;102141.09;5009621;28;19952;-71
2023/09/25 12:09:52;;;;;;;;;;;;;;;22.21;63.78;102141.16;5015125;28;19921;-72
2023/09/25 12:12:17;;;;;;;;;;;;;;;21.86;64.07;102141.13;5007367;28;19936;-70
2023/09/25 12:14:42;;;;;;;;;;;;;;;21.88;62.25;102146.47;5010459;28;19921;-71
2023/09/25 12:17:07;;;;;;;;;;;;;;;22.60;62.89;102151.53;5007511;28;19913;-70
2023/09/25 12:19:33;;;;;;;;;;;;;;;22.00;61.32;102158.81;5000814;28;19932;-71
2023/09/25 12:21:58;;;;;;;;;;;;;;;22.17;62.63;102154.28;4999462;28;19917;-70